Time;durP1;ratioP1;P1;durP2;ratioP2;P2;SDS_P1;SDS_P2;PMS_P1;PMS_P2;Temp;Humidity;BMP_temperature;BMP_pressure;BME280_temperature;BME280_humidity;BME280_pressure;Samples;Min_cycle;Max_cycle;Signal;HPM_P1;HPM_P2
2023/07/01 00:00:58;;;;;;;3.23;2.83;;;26.10;51.10;;;;;;5053271;28;20194;-67
2023/07/01 00:03:23;;;;;;;3.83;3.43;;;26.10;51.10;;;;;;5053224;28;20453;-67
2023/07/01 00:05:49;;;;;;;4.00;3.70;;;26.10;51.10;;;;;;5053064;28;20198;-67
2023/07/01 00:08:15;;;;;;;3.77;3.37;;;26.10;51.10;;;;;;5053136;28;20179;-68
2023/07/01 00:10:41;;;;;;;4.13;3.53;;;26.10;51.10;;;;;;5053053;28;20459;-66
2023/07/01 00:13:06;;;;;;;4.37;3.97;;;26.10;51.10;;;;;;5053027;28;20218;-68
2023/07/01 00:15:33;;;;;;;4.13;3.60;;;26.00;51.10;;;;;;5052715;28;20289;-68
2023/07/01 00:17:58;;;;;;;3.90;3.50;;;26.00;51.10;;;;;;5052928;28;20233;-68
2023/07/01 00:20:26;;;;;;;4.60;3.47;;;26.00;51.00;;;;;;5052938;28;20417;-68
2023/07/01 00:22:52;;;;;;;3.90;3.60;;;26.00;51.10;;;;;;5052738;28;20185;-68
2023/07/01 00:25:18;;;;;;;3.93;3.00;;;26.00;51.10;;;;;;5052721;28;20409;-68
2023/07/01 00:27:44;;;;;;;4.00;3.60;;;26.00;51.10;;;;;;5052768;28;20424;-67
2023/07/01 00:30:10;;;;;;;3.73;3.33;;;26.00;51.00;;;;;;5052681;28;20175;-68
2023/07/01 00:32:36;;;;;;;4.30;3.67;;;26.00;51.00;;;;;;5051723;28;20225;-67
2023/07/01 00:35:01;;;;;;;3.67;3.33;;;26.00;51.10;;;;;;5052559;28;20417;-68
2023/07/01 00:37:27;;;;;;;3.73;3.17;;;26.00;51.00;;;;;;5052484;28;20425;-68
2023/07/01 00:39:53;;;;;;;3.67;3.33;;;26.00;51.00;;;;;;5052805;28;20554;-67
2023/07/01 00:42:19;;;;;;;5.30;3.57;;;26.00;51.00;;;;;;5052455;28;20405;-68
2023/07/01 00:44:44;;;;;;;3.70;3.30;;;26.00;51.00;;;;;;5051145;28;20289;-68
2023/07/01 00:47:10;;;;;;;3.87;3.43;;;25.90;51.00;;;;;;5052368;28;20281;-67
2023/07/01 00:49:37;;;;;;;3.40;3.10;;;26.00;51.00;;;;;;5052369;28;20265;-68
2023/07/01 00:52:05;;;;;;;4.60;4.17;;;25.90;51.00;;;;;;5052394;28;20416;-65
2023/07/01 00:54:30;;;;;;;3.90;3.50;;;25.90;51.00;;;;;;5052407;28;20441;-67
2023/07/01 00:56:56;;;;;;;4.13;3.50;;;25.90;51.00;;;;;;5052189;28;20480;-67
2023/07/01 00:59:22;;;;;;;3.77;3.40;;;25.90;51.00;;;;;;5052280;28;20170;-68
2023/07/01 01:01:53;;;;;;;3.77;3.47;;;25.90;51.00;;;;;;5052270;28;20644;-67
2023/07/01 01:04:44;;;;;;;3.97;3.43;;;25.90;50.90;;;;;;5052421;28;20655;-68
2023/07/01 01:07:20;;;;;;;3.97;3.57;;;26.00;51.00;;;;;;5051996;28;20441;-69
2023/07/01 01:09:53;;;;;;;3.70;3.30;;;25.90;50.90;;;;;;5049919;28;20484;-67
2023/07/01 01:12:21;;;;;;;4.07;3.53;;;25.90;50.90;;;;;;5052043;28;20405;-68
2023/07/01 01:14:50;;;;;;;3.57;3.27;;;25.90;50.90;;;;;;5052028;28;20406;-68
2023/07/01 01:17:19;;;;;;;5.10;3.80;;;25.90;50.80;;;;;;5052166;28;20432;-68
2023/07/01 01:20:13;;;;;;;4.23;3.60;;;25.90;50.80;;;;;;5051989;28;20405;-68
2023/07/01 01:22:49;;;;;;;3.40;3.10;;;25.90;50.80;;;;;;5051859;28;20797;-68
2023/07/01 01:25:28;;;;;;;3.37;2.63;;;25.90;50.80;;;;;;5051834;28;20404;-67
2023/07/01 01:27:55;;;;;;;3.73;3.20;;;25.90;50.80;;;;;;5051897;28;20409;-68
2023/07/01 01:30:23;;;;;;;3.40;3.10;;;25.80;50.70;;;;;;5051840;28;20420;-67
2023/07/01 01:32:49;;;;;;;5.00;3.57;;;25.80;50.70;;;;;;5050848;28;20922;-68
2023/07/01 01:35:14;;;;;;;3.63;3.23;;;25.80;50.70;;;;;;5051722;28;20483;-68
2023/07/01 01:37:59;;;;;;;3.40;3.10;;;25.80;50.70;;;;;;5051723;28;20918;-68
2023/07/01 01:40:37;;;;;;;4.13;3.73;;;25.80;50.60;;;;;;5051746;28;20165;-69
2023/07/01 01:43:22;;;;;;;3.57;3.27;;;25.80;50.60;;;;;;5051915;28;20456;-69
2023/07/01 01:45:49;;;;;;;3.73;3.43;;;25.80;50.70;;;;;;5051616;28;20429;-68
2023/07/01 01:48:15;;;;;;;3.60;3.30;;;25.80;50.60;;;;;;5051621;28;20441;-68
2023/07/01 01:50:42;;;;;;;4.43;3.60;;;25.80;50.60;;;;;;5051574;28;20473;-68
2023/07/01 01:53:10;;;;;;;3.50;3.20;;;25.80;50.50;;;;;;5051898;28;20177;-68
2023/07/01 01:55:36;;;;;;;3.80;3.47;;;25.80;50.50;;;;;;5051533;28;20468;-67
2023/07/01 01:58:02;;;;;;;3.70;3.33;;;25.80;50.50;;;;;;5051566;28;20414;-67
2023/07/01 02:00:28;;;;;;;4.30;3.90;;;25.80;50.40;;;;;;5051544;28;20991;-68
2023/07/01 02:02:54;;;;;;;3.93;3.53;;;25.80;50.40;;;;;;5050195;28;20175;-67
2023/07/01 02:05:19;;;;;;;4.03;3.63;;;25.80;50.30;;;;;;5050016;28;20261;-68
2023/07/01 02:07:45;;;;;;;5.57;4.17;;;25.80;50.20;;;;;;5051492;28;20179;-67
2023/07/01 02:10:12;;;;;;;3.57;3.27;;;25.70;50.10;;;;;;5051486;28;20602;-68
2023/07/01 02:12:37;;;;;;;3.80;3.20;;;25.70;50.10;;;;;;5051413;28;20236;-68
2023/07/01 02:15:03;;;;;;;4.03;3.63;;;25.70;50.10;;;;;;5051396;28;20413;-68
2023/07/01 02:17:29;;;;;;;5.07;3.10;;;25.70;50.20;;;;;;5050062;28;20302;-68
2023/07/01 02:19:54;;;;;;;3.47;3.17;;;25.70;50.10;;;;;;5051371;28;20179;-69
2023/07/01 02:22:20;;;;;;;3.30;3.00;;;25.70;50.20;;;;;;5054168;28;20179;-68
2023/07/01 02:24:45;;;;;;;3.53;3.23;;;25.70;50.20;;;;;;5055001;28;20200;-67
2023/07/01 02:27:11;;;;;;;3.50;3.20;;;25.70;50.20;;;;;;5054969;28;20273;-68
2023/07/01 02:29:37;;;;;;;3.60;3.07;;;25.70;50.20;;;;;;5055038;28;20522;-68
2023/07/01 02:32:03;;;;;;;3.20;2.80;;;25.70;50.20;;;;;;5054957;28;20175;-68
2023/07/01 02:34:28;;;;;;;3.27;2.87;;;25.70;50.10;;;;;;5054938;28;20420;-68
2023/07/01 02:36:54;;;;;;;3.23;2.93;;;25.70;50.10;;;;;;5054796;28;20675;-68
2023/07/01 02:39:20;;;;;;;3.57;3.20;;;25.70;50.00;;;;;;5054834;28;20175;-68
2023/07/01 02:41:46;;;;;;;3.60;3.30;;;25.70;50.00;;;;;;5054779;28;20415;-68
2023/07/01 02:44:11;;;;;;;5.43;3.03;;;25.60;49.90;;;;;;5054688;28;20206;-68
2023/07/01 02:46:37;;;;;;;3.70;3.03;;;25.60;49.90;;;;;;5054636;28;20275;-68
2023/07/01 02:49:04;;;;;;;3.57;3.27;;;25.60;49.90;;;;;;5054572;28;20194;-68
2023/07/01 02:51:29;;;;;;;3.60;3.30;;;25.60;49.80;;;;;;5054655;28;20151;-68
2023/07/01 02:53:55;;;;;;;4.30;3.90;;;25.60;49.90;;;;;;5054479;28;20409;-67
2023/07/01 02:56:20;;;;;;;3.70;3.40;;;25.60;49.80;;;;;;5054442;28;20245;-68
2023/07/01 02:58:46;;;;;;;3.80;3.50;;;25.60;50.40;;;;;;5054447;28;20167;-68
2023/07/01 03:01:13;;;;;;;3.27;2.97;;;25.60;49.80;;;;;;5054478;28;20656;-67
2023/07/01 03:03:39;;;;;;;3.80;3.50;;;25.60;49.80;;;;;;5054555;28;20207;-68
2023/07/01 03:06:05;;;;;;;3.47;3.17;;;25.60;49.70;;;;;;5054303;28;20511;-68
2023/07/01 03:08:31;;;;;;;3.50;3.10;;;25.60;49.70;;;;;;5052980;28;20496;-67
2023/07/01 03:10:56;;;;;;;4.00;3.70;;;25.60;49.70;;;;;;5054296;28;20417;-68
2023/07/01 03:13:22;;;;;;;4.00;3.60;;;25.70;49.70;;;;;;5054445;28;20175;-69
2023/07/01 03:15:47;;;;;;;3.97;3.57;;;25.70;49.70;;;;;;5053858;28;20561;-67
2023/07/01 03:18:13;;;;;;;4.80;3.80;;;25.60;49.60;;;;;;5054105;28;20240;-68
2023/07/01 03:20:39;;;;;;;4.03;3.63;;;25.60;49.60;;;;;;5054030;28;20599;-68
2023/07/01 03:23:04;;;;;;;3.53;3.17;;;25.60;49.50;;;;;;5053927;28;20202;-68
2023/07/01 03:25:30;;;;;;;3.60;3.30;;;25.60;49.50;;;;;;5054157;28;20201;-68
2023/07/01 03:27:56;;;;;;;4.73;4.00;;;25.60;49.50;;;;;;5053912;28;20175;-68
2023/07/01 03:30:28;;;;;;;3.93;3.60;;;25.60;49.40;;;;;;5053816;28;20413;-69
2023/07/01 03:32:54;;;;;;;3.80;3.47;;;25.70;49.50;;;;;;5052888;28;20166;-68
2023/07/01 03:35:20;;;;;;;4.00;3.47;;;25.60;49.40;;;;;;5053707;28;20492;-66
2023/07/01 03:37:46;;;;;;;3.87;3.47;;;25.60;49.40;;;;;;5052452;28;20664;-68
2023/07/01 03:40:11;;;;;;;3.90;3.60;;;25.60;49.40;;;;;;5053683;28;20175;-68
2023/07/01 03:42:38;;;;;;;3.70;3.40;;;25.60;49.40;;;;;;5053608;28;20171;-68
2023/07/01 03:45:08;;;;;;;4.50;4.10;;;25.60;49.40;;;;;;5053425;28;20571;-68
2023/07/01 03:47:44;;;;;;;4.23;3.83;;;25.60;49.40;;;;;;5053537;28;20409;-69
2023/07/01 03:50:10;;;;;;;3.23;2.93;;;25.60;49.40;;;;;;5053358;28;21007;-68
2023/07/01 03:52:38;;;;;;;3.30;3.00;;;25.60;49.30;;;;;;5053437;28;20436;-68
2023/07/01 03:55:05;;;;;;;3.53;3.00;;;25.60;49.30;;;;;;5053381;28;20467;-68
2023/07/01 03:57:31;;;;;;;3.80;3.50;;;25.60;49.30;;;;;;5051968;28;20528;-68
2023/07/01 03:59:56;;;;;;;3.30;3.00;;;25.60;49.30;;;;;;5053274;28;20417;-68
2023/07/01 04:02:22;;;;;;;3.67;3.37;;;25.60;49.30;;;;;;5053251;28;20428;-68
2023/07/01 04:04:48;;;;;;;3.67;3.33;;;25.60;49.30;;;;;;5053433;28;20199;-68
2023/07/01 04:07:13;;;;;;;4.10;3.17;;;25.60;49.30;;;;;;5053151;28;20187;-68
2023/07/01 04:09:39;;;;;;;3.40;3.10;;;25.60;49.30;;;;;;5053067;28;20164;-69
2023/07/01 04:12:05;;;;;;;3.70;3.30;;;25.60;49.20;;;;;;5053025;28;20302;-68
2023/07/01 04:14:31;;;;;;;3.93;3.50;;;25.60;49.20;;;;;;5053241;28;20220;-68
2023/07/01 04:16:56;;;;;;;3.90;3.60;;;25.60;49.20;;;;;;5052893;28;20933;-68
2023/07/01 04:19:22;;;;;;;3.90;3.50;;;25.60;49.30;;;;;;5051687;28;20213;-68
2023/07/01 04:21:48;;;;;;;4.40;4.00;;;25.50;49.10;;;;;;5052856;28;20167;-68
2023/07/01 04:24:14;;;;;;;3.57;3.27;;;25.60;49.20;;;;;;5052673;28;20460;-68
2023/07/01 04:26:41;;;;;;;4.27;3.83;;;25.60;49.10;;;;;;5052657;28;20548;-68
2023/07/01 04:29:09;;;;;;;4.50;3.60;;;25.60;49.20;;;;;;5052688;28;20178;-68
2023/07/01 04:31:35;;;;;;;4.20;3.90;;;25.50;49.10;;;;;;5052678;28;20422;-68
2023/07/01 04:34:00;;;;;;;3.53;3.23;;;25.60;49.80;;;;;;5052928;28;20499;-69
2023/07/01 04:36:26;;;;;;;3.57;3.27;;;25.60;49.20;;;;;;5052568;28;20679;-68
2023/07/01 04:38:51;;;;;;;4.03;3.63;;;25.60;49.30;;;;;;5052857;28;20186;-68
2023/07/01 04:41:17;;;;;;;3.90;3.50;;;25.60;49.30;;;;;;5052550;28;20181;-66
2023/07/01 04:43:43;;;;;;;3.83;3.40;;;25.60;49.30;;;;;;5052246;28;20198;-68
2023/07/01 04:46:08;;;;;;;3.43;3.13;;;25.60;49.30;;;;;;5051049;28;20198;-68
2023/07/01 04:48:34;;;;;;;3.83;3.40;;;25.60;49.30;;;;;;5052670;28;20253;-68
2023/07/01 04:50:59;;;;;;;3.90;3.40;;;25.60;49.30;;;;;;5052240;28;20194;-67
2023/07/01 04:53:25;;;;;;;4.30;3.90;;;25.60;49.30;;;;;;5052281;28;20658;-68
2023/07/01 04:55:50;;;;;;;4.27;3.77;;;25.60;49.30;;;;;;5052183;28;20203;-68
2023/07/01 04:58:17;;;;;;;4.50;4.10;;;25.60;49.40;;;;;;5052222;28;20178;-68
2023/07/01 05:00:42;;;;;;;4.03;3.27;;;25.60;49.90;;;;;;5052156;28;20194;-68
2023/07/01 05:03:08;;;;;;;3.23;2.93;;;25.60;49.30;;;;;;5052130;28;20935;-68
2023/07/01 05:05:33;;;;;;;4.10;3.73;;;25.60;49.40;;;;;;5052036;28;20549;-68
2023/07/01 05:07:59;;;;;;;5.13;3.67;;;25.60;49.40;;;;;;5050793;28;20252;-67
2023/07/01 05:10:24;;;;;;;4.53;3.70;;;25.60;49.40;;;;;;5052005;28;20313;-68
2023/07/01 05:12:50;;;;;;;5.77;4.27;;;25.60;49.40;;;;;;5052292;28;20181;-68
2023/07/01 05:15:16;;;;;;;6.60;3.80;;;25.60;49.40;;;;;;5051971;28;20195;-68
2023/07/01 05:17:45;;;;;;;4.43;4.00;;;25.70;49.50;;;;;;5051968;28;20198;-68
2023/07/01 05:20:11;;;;;;;5.23;3.80;;;25.60;49.40;;;;;;5051939;28;20444;-68
2023/07/01 05:22:37;;;;;;;8.13;4.03;;;25.60;49.50;;;;;;5051939;28;20409;-68
2023/07/01 05:25:03;;;;;;;3.53;3.20;;;25.60;49.50;;;;;;5051825;28;20456;-68
2023/07/01 05:27:30;;;;;;;4.97;4.33;;;25.60;49.50;;;;;;5051822;28;20500;-67
2023/07/01 05:29:56;;;;;;;5.20;3.53;;;25.70;49.60;;;;;;5051896;28;20398;-68
2023/07/01 05:32:22;;;;;;;3.90;3.50;;;25.60;49.60;;;;;;5051829;28;20493;-68
2023/07/01 05:34:47;;;;;;;7.80;3.53;;;25.70;49.70;;;;;;5052062;28;20833;-67
2023/07/01 05:37:13;;;;;;;5.33;4.03;;;25.70;49.80;;;;;;5051608;28;20274;-66
2023/07/01 05:39:39;;;;;;;4.10;3.70;;;25.70;49.80;;;;;;5052044;28;20221;-68
2023/07/01 05:42:05;;;;;;;7.03;4.07;;;25.70;49.80;;;;;;5052021;28;20640;-68
2023/07/01 05:44:31;;;;;;;3.80;3.33;;;25.70;49.80;;;;;;5051589;28;20221;-68
2023/07/01 05:46:56;;;;;;;7.33;3.53;;;25.70;49.80;;;;;;5051602;28;20433;-68
2023/07/01 05:49:22;;;;;;;4.20;3.80;;;25.70;49.80;;;;;;5051499;28;20285;-68
2023/07/01 05:51:48;;;;;;;5.33;3.33;;;25.70;49.90;;;;;;5051705;28;20213;-67
2023/07/01 05:54:14;;;;;;;4.50;4.10;;;25.70;49.90;;;;;;5051631;28;20408;-68
2023/07/01 05:56:39;;;;;;;5.70;4.17;;;25.70;50.00;;;;;;5053449;28;20260;-67
2023/07/01 05:59:05;;;;;;;6.80;3.67;;;25.70;50.00;;;;;;5055581;28;20815;-68
2023/07/01 06:01:30;;;;;;;4.83;4.30;;;25.70;50.00;;;;;;5055521;28;20171;-68
2023/07/01 06:03:56;;;;;;;5.10;4.13;;;25.70;50.10;;;;;;5054135;28;20214;-68
2023/07/01 06:06:22;;;;;;;5.20;4.23;;;25.70;50.10;;;;;;5055620;28;20191;-68
2023/07/01 06:08:48;;;;;;;5.10;4.00;;;25.70;50.10;;;;;;5055431;28;20257;-68
2023/07/01 06:11:14;;;;;;;4.40;3.70;;;25.70;50.20;;;;;;5055414;28;20547;-68
2023/07/01 06:13:47;;;;;;;3.93;3.53;;;25.70;50.20;;;;;;5055359;28;20420;-68
2023/07/01 06:16:13;;;;;;;5.70;4.93;;;25.70;50.20;;;;;;5055196;28;20797;-67
2023/07/01 06:18:39;;;;;;;6.10;4.13;;;25.70;50.30;;;;;;5055239;28;20412;-68
2023/07/01 06:21:06;;;;;;;4.50;3.80;;;25.70;50.30;;;;;;5055232;28;20918;-68
2023/07/01 06:23:32;;;;;;;6.13;4.27;;;25.70;50.30;;;;;;5055050;28;20190;-68
2023/07/01 06:25:58;;;;;;;4.27;3.87;;;25.70;50.40;;;;;;5054160;28;20987;-68
2023/07/01 06:28:24;;;;;;;5.07;3.30;;;25.70;50.40;;;;;;5055024;28;20417;-67
2023/07/01 06:30:49;;;;;;;5.87;4.27;;;25.70;50.50;;;;;;5055007;28;20174;-67
2023/07/01 06:33:15;;;;;;;6.20;4.00;;;25.70;50.60;;;;;;5054992;28;20251;-67
2023/07/01 06:35:43;;;;;;;5.07;4.50;;;25.80;50.60;;;;;;5054910;28;20589;-67
2023/07/01 06:38:09;;;;;;;6.77;4.27;;;25.80;50.70;;;;;;5054887;28;20851;-67
2023/07/01 06:40:35;;;;;;;4.20;3.80;;;25.70;50.70;;;;;;5055076;28;20410;-67
2023/07/01 06:43:02;;;;;;;4.70;4.23;;;25.70;50.80;;;;;;5054700;28;20844;-67
2023/07/01 06:45:28;;;;;;;5.50;4.23;;;25.70;50.80;;;;;;5054710;28;20597;-68
2023/07/01 06:47:54;;;;;;;5.93;4.80;;;25.70;50.90;;;;;;5054989;28;20467;-68
2023/07/01 06:50:19;;;;;;;4.43;4.03;;;25.80;51.00;;;;;;5054494;28;20441;-68
2023/07/01 06:52:45;;;;;;;5.10;4.40;;;25.70;51.00;;;;;;5054603;28;20175;-68
2023/07/01 06:55:13;;;;;;;5.67;4.37;;;25.70;51.00;;;;;;5054416;28;20167;-66
2023/07/01 06:57:39;;;;;;;5.70;5.20;;;25.70;51.10;;;;;;5054763;28;20549;-66
2023/07/01 07:00:07;;;;;;;5.57;5.03;;;25.70;51.10;;;;;;5054472;28;21014;-67
2023/07/01 07:02:32;;;;;;;5.73;5.10;;;25.70;51.20;;;;;;5054688;28;21065;-67
2023/07/01 07:04:58;;;;;;;6.00;5.40;;;25.70;51.20;;;;;;5054247;28;20451;-68
2023/07/01 07:07:23;;;;;;;5.67;4.77;;;25.70;51.30;;;;;;5052949;28;20201;-67
2023/07/01 07:09:49;;;;;;;5.10;4.60;;;25.70;51.30;;;;;;5054087;28;20164;-67
2023/07/01 07:12:14;;;;;;;5.87;5.27;;;25.70;51.30;;;;;;5054222;28;20175;-67
2023/07/01 07:14:40;;;;;;;6.53;5.20;;;25.70;51.30;;;;;;5054165;28;20175;-67
2023/07/01 07:17:06;;;;;;;6.03;5.10;;;25.80;51.40;;;;;;5054088;28;20248;-67
2023/07/01 07:19:31;;;;;;;5.77;5.00;;;25.70;51.30;;;;;;5054083;28;20258;-68
2023/07/01 07:21:57;;;;;;;6.33;5.57;;;25.80;51.40;;;;;;5054045;28;20175;-67
2023/07/01 07:24:22;;;;;;;5.37;4.87;;;25.70;51.30;;;;;;5053932;28;20199;-67
2023/07/01 07:26:56;;;;;;;6.00;4.80;;;25.70;51.30;;;;;;5053830;28;20186;-67
2023/07/01 07:29:22;;;;;;;8.33;4.90;;;25.70;51.30;;;;;;5053891;28;20195;-66
2023/07/01 07:31:48;;;;;;;6.10;5.50;;;25.70;51.30;;;;;;5053865;28;20409;-67
2023/07/01 07:34:14;;;;;;;10.03;5.00;;;25.70;51.20;;;;;;5053766;28;20398;-68
2023/07/01 07:36:39;;;;;;;5.60;4.50;;;25.70;51.20;;;;;;5053698;28;20222;-67
2023/07/01 07:39:05;;;;;;;6.77;4.60;;;25.80;51.30;;;;;;5054004;28;20171;-67
2023/07/01 07:41:30;;;;;;;6.80;4.57;;;25.70;51.20;;;;;;5053671;28;20175;-69
2023/07/01 07:43:56;;;;;;;6.13;4.07;;;25.70;51.10;;;;;;5053501;28;20206;-67
2023/07/01 07:46:21;;;;;;;5.93;4.23;;;25.70;51.00;;;;;;5053445;28;20262;-69
2023/07/01 07:48:47;;;;;;;4.73;4.20;;;25.70;50.90;;;;;;5053559;28;20175;-68
2023/07/01 07:51:13;;;;;;;5.30;4.10;;;25.70;50.90;;;;;;5053490;28;20171;-68
2023/07/01 07:53:39;;;;;;;5.30;3.80;;;25.70;50.80;;;;;;5053410;28;20250;-67
2023/07/01 07:56:04;;;;;;;5.90;4.13;;;25.70;50.60;;;;;;5053563;28;20199;-68
2023/07/01 07:58:30;;;;;;;4.33;3.93;;;25.70;50.40;;;;;;5053299;28;20455;-67
2023/07/01 08:00:55;;;;;;;3.70;3.10;;;25.70;50.20;;;;;;5053319;28;20182;-68
2023/07/01 08:03:22;;;;;;;4.83;3.67;;;25.70;50.10;;;;;;5053134;28;20194;-66
2023/07/01 08:05:49;;;;;;;5.40;3.37;;;25.70;49.90;;;;;;5053108;28;20195;-67
2023/07/01 08:08:15;;;;;;;6.80;3.97;;;25.70;50.40;;;;;;5053136;28;20477;-68
2023/07/01 08:10:45;;;;;;;4.13;3.73;;;25.70;49.80;;;;;;5053054;28;20406;-68
2023/07/01 08:13:11;;;;;;;3.13;2.83;;;25.70;49.70;;;;;;5053290;28;20174;-68
2023/07/01 08:15:37;;;;;;;3.00;2.70;;;25.70;49.60;;;;;;5052832;28;20464;-68
2023/07/01 08:18:03;;;;;;;5.30;3.30;;;25.70;49.50;;;;;;5052964;28;20405;-68
2023/07/01 08:20:29;;;;;;;3.20;2.63;;;25.70;49.20;;;;;;5052454;28;20925;-67
2023/07/01 08:22:54;;;;;;;3.00;2.70;;;25.60;49.10;;;;;;5052707;28;20163;-67
2023/07/01 08:25:20;;;;;;;3.60;2.97;;;25.60;48.80;;;;;;5052776;28;20589;-68
2023/07/01 08:27:45;;;;;;;2.43;2.23;;;25.60;48.70;;;;;;5052762;28;20675;-68
2023/07/01 08:30:12;;;;;;;4.00;2.87;;;25.60;48.50;;;;;;5052778;28;20185;-67
2023/07/01 08:32:38;;;;;;;2.97;2.40;;;25.60;48.40;;;;;;5052976;28;20254;-67
2023/07/01 08:35:05;;;;;;;3.00;2.13;;;25.60;48.40;;;;;;5052545;28;20405;-68
2023/07/01 08:37:30;;;;;;;3.20;2.70;;;25.60;48.30;;;;;;5052480;28;20440;-67
2023/07/01 08:39:56;;;;;;;2.47;1.90;;;25.60;48.20;;;;;;5052859;28;20409;-67
2023/07/01 08:42:27;;;;;;;2.50;2.30;;;25.60;48.00;;;;;;5052493;28;20202;-67
2023/07/01 08:44:53;;;;;;;6.13;3.00;;;25.60;48.00;;;;;;5052414;28;20187;-66
2023/07/01 08:47:20;;;;;;;4.60;2.50;;;25.60;47.80;;;;;;5052301;28;20417;-68
2023/07/01 08:49:49;;;;;;;2.80;2.30;;;25.60;47.60;;;;;;5052251;28;20429;-68
2023/07/01 08:52:17;;;;;;;3.07;2.60;;;25.60;47.70;;;;;;5052551;28;20414;-67
2023/07/01 08:54:44;;;;;;;3.40;2.23;;;25.60;47.50;;;;;;5052212;28;20418;-68
2023/07/01 08:57:10;;;;;;;2.80;2.40;;;25.60;47.40;;;;;;5050853;28;20433;-69
2023/07/01 08:59:37;;;;;;;2.57;2.20;;;25.60;47.20;;;;;;5052137;28;20417;-67
2023/07/01 09:02:02;;;;;;;3.23;2.10;;;25.50;47.10;;;;;;5050857;28;20421;-68
2023/07/01 09:04:28;;;;;;;3.30;2.67;;;25.50;47.00;;;;;;5051981;28;20449;-68
2023/07/01 09:06:54;;;;;;;3.27;2.13;;;25.50;46.90;;;;;;5050743;28;20698;-68
2023/07/01 09:09:19;;;;;;;2.63;2.20;;;25.50;46.90;;;;;;5052343;28;20660;-68
2023/07/01 09:11:47;;;;;;;3.00;2.47;;;25.50;46.80;;;;;;5052359;28;20543;-68
2023/07/01 09:14:13;;;;;;;2.10;1.67;;;25.50;46.80;;;;;;5052034;28;20170;-68
2023/07/01 09:16:39;;;;;;;3.00;2.30;;;25.50;46.60;;;;;;5051914;28;20425;-68
2023/07/01 09:19:06;;;;;;;2.47;1.90;;;25.50;46.70;;;;;;5051877;28;20408;-67
2023/07/01 09:21:32;;;;;;;2.80;2.50;;;25.50;46.60;;;;;;5051907;28;20167;-68
2023/07/01 09:23:59;;;;;;;2.80;1.90;;;25.50;46.50;;;;;;5051775;28;20453;-68
2023/07/01 09:26:27;;;;;;;2.90;1.70;;;25.50;46.50;;;;;;5051718;28;20429;-68
2023/07/01 09:28:53;;;;;;;1.80;1.50;;;25.50;46.40;;;;;;5052058;28;20413;-68
2023/07/01 09:31:19;;;;;;;3.03;1.50;;;25.50;46.40;;;;;;5050899;28;20488;-66
2023/07/01 09:33:58;;;;;;;3.47;2.07;;;25.50;46.40;;;;;;5051681;28;20900;-68
2023/07/01 09:36:25;;;;;;;1.70;1.60;;;25.50;46.40;;;;;;5051672;28;20191;-68
2023/07/01 09:38:52;;;;;;;2.03;1.73;;;25.50;46.30;;;;;;5051957;28;20433;-67
2023/07/01 09:41:20;;;;;;;3.97;1.77;;;25.40;46.20;;;;;;5051724;28;20788;-68
2023/07/01 09:43:48;;;;;;;2.27;1.83;;;25.50;46.20;;;;;;5051498;28;20460;-67
2023/07/01 09:46:14;;;;;;;1.90;1.50;;;25.50;46.20;;;;;;5051509;28;20501;-68
2023/07/01 09:48:52;;;;;;;2.17;1.60;;;25.50;46.10;;;;;;5051523;28;20401;-68
2023/07/01 09:51:18;;;;;;;3.17;2.00;;;25.50;46.20;;;;;;5051922;28;20167;-67
2023/07/01 09:53:44;;;;;;;3.00;1.70;;;25.40;46.00;;;;;;5050152;28;20409;-67
2023/07/01 09:56:12;;;;;;;2.37;1.80;;;25.50;46.10;;;;;;5051388;28;20494;-68
2023/07/01 09:58:39;;;;;;;2.20;2.00;;;25.40;46.10;;;;;;5051406;28;20175;-68
2023/07/01 10:01:04;;;;;;;2.17;1.37;;;25.40;46.00;;;;;;5051480;28;20394;-68
2023/07/01 10:03:30;;;;;;;2.43;1.60;;;25.40;46.00;;;;;;5051361;28;20453;-68
2023/07/01 10:05:56;;;;;;;2.50;2.07;;;25.50;46.00;;;;;;5051659;28;20191;-66
2023/07/01 10:08:22;;;;;;;2.33;2.10;;;25.50;46.00;;;;;;5051440;28;20259;-67
2023/07/01 10:11:10;;;;;;;2.00;1.50;;;25.50;46.10;;;;;;5050104;28;20286;-68
2023/07/01 10:13:45;;;;;;;2.60;1.83;;;25.50;46.10;;;;;;5051242;28;20421;-68
2023/07/01 10:16:11;;;;;;;1.80;1.40;;;25.50;46.10;;;;;;5051295;28;20948;-68
2023/07/01 10:18:36;;;;;;;3.00;1.90;;;25.50;46.00;;;;;;5051269;28;20767;-67
2023/07/01 10:21:25;;;;;;;2.23;1.50;;;25.50;45.90;;;;;;5051260;28;20504;-68
2023/07/01 10:23:51;;;;;;;1.93;1.83;;;25.50;46.00;;;;;;5051107;28;20552;-67
2023/07/01 10:26:43;;;;;;;2.20;1.80;;;25.50;45.90;;;;;;5049828;28;20437;-67
2023/07/01 10:29:28;;;;;;;2.30;2.10;;;25.50;46.00;;;;;;5051453;28;20405;-68
2023/07/01 10:32:08;;;;;;;3.27;2.00;;;25.50;46.00;;;;;;5051222;28;20405;-67
2023/07/01 10:34:52;;;;;;;3.10;2.20;;;25.40;45.80;;;;;;5051397;28;20413;-67
2023/07/01 10:37:19;;;;;;;4.60;2.30;;;25.40;45.80;;;;;;5051027;28;20461;-68
2023/07/01 10:39:44;;;;;;;2.57;1.80;;;25.40;45.70;;;;;;5051113;28;20402;-67
2023/07/01 10:42:33;;;;;;;2.40;2.20;;;25.40;45.50;;;;;;5052105;28;20412;-68
2023/07/01 10:45:24;;;;;;;3.00;2.67;;;25.40;45.60;;;;;;5054907;28;20271;-68
2023/07/01 10:47:50;;;;;;;2.03;1.83;;;25.40;45.50;;;;;;5051359;28;20425;-68
2023/07/01 10:50:18;;;;;;;2.67;2.13;;;25.40;45.50;;;;;;5054489;28;20429;-68
2023/07/01 10:52:56;;;;;;;2.30;1.90;;;25.40;45.40;;;;;;5054455;28;20576;-68
2023/07/01 10:55:34;;;;;;;3.00;1.90;;;25.40;45.40;;;;;;5054368;28;20405;-68
2023/07/01 10:58:24;;;;;;;10.90;2.73;;;25.40;45.30;;;;;;5054347;28;20448;-66
2023/07/01 11:00:59;;;;;;;2.17;1.73;;;25.50;45.30;;;;;;5054418;28;20799;-68
2023/07/01 11:03:34;;;;;;;4.03;2.13;;;25.40;45.20;;;;;;5054238;28;20460;-67
2023/07/01 11:06:00;;;;;;;1.73;1.60;;;25.40;45.20;;;;;;5054190;28;20865;-67
2023/07/01 11:08:27;;;;;;;2.40;1.73;;;25.40;45.20;;;;;;5054162;28;20413;-68
2023/07/01 11:10:53;;;;;;;2.97;2.30;;;25.40;45.00;;;;;;5052850;28;21040;-67
2023/07/01 11:13:19;;;;;;;2.20;2.00;;;25.50;45.10;;;;;;5054130;28;20516;-68
2023/07/01 11:16:08;;;;;;;2.77;2.00;;;25.40;45.00;;;;;;5054226;28;20962;-67
2023/07/01 11:18:47;;;;;;;4.07;2.20;;;25.40;44.90;;;;;;5053956;28;20408;-69
2023/07/01 11:21:17;;;;;;;2.40;2.20;;;25.40;45.10;;;;;;5053976;28;20434;-67
2023/07/01 11:23:51;;;;;;;5.13;2.30;;;25.40;45.10;;;;;;5052591;28;20464;-68
2023/07/01 11:26:24;;;;;;;3.07;2.10;;;25.50;44.90;;;;;;5054043;28;20797;-67
2023/07/01 11:28:51;;;;;;;3.33;2.30;;;25.40;44.70;;;;;;5053891;28;20455;-67
2023/07/01 11:31:20;;;;;;;3.03;2.63;;;25.40;44.70;;;;;;5052438;28;20422;-68
2023/07/01 11:33:50;;;;;;;2.60;2.40;;;25.50;44.80;;;;;;5053698;28;20410;-68
2023/07/01 11:36:17;;;;;;;3.07;2.17;;;25.40;44.70;;;;;;5053879;28;20532;-68
2023/07/01 11:38:47;;;;;;;3.50;2.63;;;25.40;44.70;;;;;;5053643;28;20447;-68
2023/07/01 11:41:21;;;;;;;5.23;2.90;;;25.40;44.60;;;;;;5053820;28;20516;-67
2023/07/01 11:43:47;;;;;;;4.13;3.00;;;25.50;45.10;;;;;;5053443;28;20813;-66
2023/07/01 11:46:13;;;;;;;4.17;2.63;;;25.40;44.50;;;;;;5053532;28;20429;-67
2023/07/01 11:48:42;;;;;;;3.50;3.03;;;25.40;44.50;;;;;;5053485;28;20417;-68
2023/07/01 11:51:08;;;;;;;5.73;2.80;;;25.50;44.50;;;;;;5053616;28;20418;-68
2023/07/01 11:53:37;;;;;;;2.93;2.10;;;25.50;44.40;;;;;;5052945;28;20971;-67
2023/07/01 11:56:03;;;;;;;3.40;3.10;;;25.50;44.40;;;;;;5053564;28;20211;-67
2023/07/01 11:58:34;;;;;;;3.00;2.23;;;25.50;44.50;;;;;;5053576;28;20467;-69
2023/07/01 12:01:00;;;;;;;3.87;2.67;;;25.50;44.50;;;;;;5053333;28;20936;-67
2023/07/01 12:03:32;;;;;;;3.80;2.80;;;25.50;44.70;;;;;;5053192;28;20453;-67
2023/07/01 12:05:57;;;;;;;3.30;3.00;;;25.50;44.60;;;;;;5053236;28;20432;-66
2023/07/01 12:08:23;;;;;;;4.97;3.07;;;25.50;44.60;;;;;;5053162;28;20405;-68
2023/07/01 12:10:48;;;;;;;3.67;3.20;;;25.50;44.50;;;;;;5053139;28;20663;-67
2023/07/01 12:13:30;;;;;;;4.13;3.30;;;25.50;44.40;;;;;;5051807;28;20547;-68
2023/07/01 12:15:59;;;;;;;5.20;3.80;;;25.50;44.40;;;;;;5051758;28;20191;-67
2023/07/01 12:18:29;;;;;;;3.53;3.23;;;25.50;44.40;;;;;;5052960;28;20405;-66
2023/07/01 12:20:56;;;;;;;3.40;3.00;;;25.50;44.30;;;;;;5052906;28;20394;-69
2023/07/01 12:23:22;;;;;;;3.40;3.10;;;25.50;44.20;;;;;;5052789;28;20818;-67
2023/07/01 12:25:49;;;;;;;4.90;3.10;;;25.50;44.20;;;;;;5052765;28;20512;-68
2023/07/01 12:28:15;;;;;;;3.37;3.00;;;25.50;44.30;;;;;;5052707;28;20492;-67
2023/07/01 12:30:41;;;;;;;4.13;3.00;;;25.50;44.30;;;;;;5052724;28;20417;-68
2023/07/01 12:33:07;;;;;;;3.13;2.80;;;25.50;44.30;;;;;;5053005;28;20406;-68
2023/07/01 12:35:33;;;;;;;4.40;3.20;;;25.50;44.50;;;;;;5052597;28;20597;-68
2023/07/01 12:37:58;;;;;;;3.77;3.40;;;25.50;44.60;;;;;;5052868;28;20576;-69
2023/07/01 12:40:27;;;;;;;4.23;3.27;;;25.50;44.70;;;;;;5052964;28;20409;-68
2023/07/01 12:42:54;;;;;;;3.73;2.87;;;25.50;44.70;;;;;;5052509;28;20214;-67
2023/07/01 12:45:20;;;;;;;3.53;2.93;;;25.50;44.70;;;;;;5052305;28;20459;-68
2023/07/01 12:47:45;;;;;;;3.57;2.87;;;25.50;44.70;;;;;;5052414;28;20484;-67
2023/07/01 12:50:11;;;;;;;5.50;3.50;;;25.50;44.60;;;;;;5052134;28;20437;-68